Oppland — V2QM7 — position and weather

sailwx.info

Track history (hours):
 
Tides and Currents Weather Stations Pressure Air Temp Water Temp Dewpoint Dewpoint Depression Visibility Wind Speed Wind Dir Waves Ship Positions

Oppland

Last reported at 2018-Jun-23 07:30 UTC. Time now 2018-Jun-23 07:47 UTC.
Position N 38°17' W 009°50'.

Length 107 m; draft 8 m.

Type: Ship. MMSI: 305716000.

Date/timePositionNaut miles runAvg speedWind from/ knotsBaromVisibWave heightAir tempDewpointWater temp
2018-Jun-23 07:30N 38°17' W 009°50'5 9.3
2018-Jun-23 07:00N 38°13' W 009°49'5 9.5
2018-Jun-23 06:30N 38°08' W 009°49'5 9.8
2018-Jun-23 06:00N 38°03' W 009°49'510.1
2018-Jun-23 05:30N 37°58' W 009°49'610.4
2018-Jun-23 04:56N 37°52' W 009°48'610.3
2018-Jun-23 04:22N 37°46' W 009°48'4 9.8
2018-Jun-23 04:00N 37°43' W 009°48'510.1
2018-Jun-23 03:30N 37°38' W 009°47'510.1
2018-Jun-23 03:00N 37°32' W 009°47'510.1
2018-Jun-23 02:30N 37°27' W 009°47'10 9.8
2018-Jun-23 01:31N 37°18' W 009°47'0 9.4
2018-Jun-23 01:29N 37°17' W 009°47'  
2018-Jun-16 02:44N 34°01' W 008°55'3 9.9
2018-Jun-16 02:26N 34°03' W 008°55'4 9.5
2018-Jun-16 02:00N 34°07' W 008°56'4 8.6
2018-Jun-16 01:29N 34°12' W 008°58'4 8.5
2018-Jun-16 01:00N 34°16' W 008°59'6 8.9
2018-Jun-16 00:16N 34°22' W 009°01'3 8.8
2018-Jun-15 23:58N 34°25' W 009°02'4 9.1
2018-Jun-15 23:30N 34°29' W 009°03'5 9.2
2018-Jun-15 23:01N 34°33' W 009°04'5 9.6
2018-Jun-15 22:28N 34°38' W 009°05'5 9.7
2018-Jun-15 21:59N 34°43' W 009°06'5 9.8
2018-Jun-15 21:30N 34°47' W 009°07'6910.1
2018-Jun-15 14:42N 35°55' W 009°26'210.7
2018-Jun-15 14:29N 35°57' W 009°27'2910.4
2018-Jun-15 11:43N 36°25' W 009°35'210.2
2018-Jun-15 11:30N 36°27' W 009°35'44 9.2
2018-Jun-15 06:43N 37°10' W 009°47'1310.1
2018-Jun-15 05:24N 37°23' W 009°51'2110.1
2018-Jun-15 03:16N 37°44' W 009°57'310.0
2018-Jun-15 03:00N 37°47' W 009°58'1010.3
2018-Jun-15 02:04N 37°56' W 010°00'110.3
2018-Jun-15 02:00N 37°57' W 010°00'510.3
2018-Jun-15 01:30N 38°02' W 010°01'510.5
2018-Jun-15 01:00N 38°07' W 010°01'510.4
2018-Jun-15 00:29N 38°12' W 010°02'510.3
2018-Jun-15 00:00N 38°17' W 010°03'510.3
2018-Jun-14 23:31N 38°22' W 010°03'510.4
2018-Jun-14 22:59N 38°28' W 010°03'510.7
2018-Jun-14 22:30N 38°33' W 010°04'510.5
2018-Jun-14 22:00N 38°38' W 010°05'510.8
2018-Jun-14 21:30N 38°44' W 010°06'510.7
2018-Jun-14 21:00N 38°49' W 010°06'510.6
2018-Jun-14 20:31N 38°54' W 010°06'611.1
2018-Jun-14 20:01N 38°60' W 010°06'510.5
2018-Jun-14 19:31N 39°05' W 010°06'510.6
2018-Jun-14 19:00N 39°10' W 010°06'510.6
2018-Jun-14 18:30N 39°15' W 010°06'610.2
2018-Jun-14 17:57N 39°21' W 010°06'610.5
2018-Jun-14 17:25N 39°27' W 010°06'410.5
2018-Jun-14 17:00N 39°31' W 010°06'510.8
2018-Jun-14 16:31N 39°36' W 010°06'  
Track history (hours):
 
Tides and Currents Weather Stations Pressure Air Temp Water Temp Dewpoint Dewpoint Depression Visibility Wind Speed Wind Dir Waves Ship Positions

Oppland

Last reported at 2018-Jun-23 07:30 UTC. Time now 2018-Jun-23 07:47 UTC.
Position N 38°17' W 009°50'.

Length 107 m; draft 8 m.

Type: Ship. MMSI: 305716000.

Date/timePositionNaut miles runAvg speedWind from/ knotsBaromVisibWave heightAir tempDewpointWater temp
2018-Jun-23 07:30N 38°17' W 009°50'5 9.3
2018-Jun-23 07:00N 38°13' W 009°49'5 9.5
2018-Jun-23 06:30N 38°08' W 009°49'5 9.8
2018-Jun-23 06:00N 38°03' W 009°49'510.1
2018-Jun-23 05:30N 37°58' W 009°49'610.4
2018-Jun-23 04:56N 37°52' W 009°48'610.3
2018-Jun-23 04:22N 37°46' W 009°48'4 9.8
2018-Jun-23 04:00N 37°43' W 009°48'510.1
2018-Jun-23 03:30N 37°38' W 009°47'510.1
2018-Jun-23 03:00N 37°32' W 009°47'510.1
2018-Jun-23 02:30N 37°27' W 009°47'10 9.8
2018-Jun-23 01:31N 37°18' W 009°47'0 9.4
2018-Jun-23 01:29N 37°17' W 009°47'  
2018-Jun-16 02:44N 34°01' W 008°55'3 9.9
2018-Jun-16 02:26N 34°03' W 008°55'4 9.5
2018-Jun-16 02:00N 34°07' W 008°56'4 8.6
2018-Jun-16 01:29N 34°12' W 008°58'4 8.5
2018-Jun-16 01:00N 34°16' W 008°59'6 8.9
2018-Jun-16 00:16N 34°22' W 009°01'3 8.8
2018-Jun-15 23:58N 34°25' W 009°02'4 9.1
2018-Jun-15 23:30N 34°29' W 009°03'5 9.2
2018-Jun-15 23:01N 34°33' W 009°04'5 9.6
2018-Jun-15 22:28N 34°38' W 009°05'5 9.7
2018-Jun-15 21:59N 34°43' W 009°06'5 9.8
2018-Jun-15 21:30N 34°47' W 009°07'6910.1
2018-Jun-15 14:42N 35°55' W 009°26'210.7
2018-Jun-15 14:29N 35°57' W 009°27'2910.4
2018-Jun-15 11:43N 36°25' W 009°35'210.2
2018-Jun-15 11:30N 36°27' W 009°35'44 9.2
2018-Jun-15 06:43N 37°10' W 009°47'1310.1
2018-Jun-15 05:24N 37°23' W 009°51'2110.1
2018-Jun-15 03:16N 37°44' W 009°57'310.0
2018-Jun-15 03:00N 37°47' W 009°58'1010.3
2018-Jun-15 02:04N 37°56' W 010°00'110.3
2018-Jun-15 02:00N 37°57' W 010°00'510.3
2018-Jun-15 01:30N 38°02' W 010°01'510.5
2018-Jun-15 01:00N 38°07' W 010°01'510.4
2018-Jun-15 00:29N 38°12' W 010°02'510.3
2018-Jun-15 00:00N 38°17' W 010°03'510.3
2018-Jun-14 23:31N 38°22' W 010°03'510.4
2018-Jun-14 22:59N 38°28' W 010°03'510.7
2018-Jun-14 22:30N 38°33' W 010°04'510.5
2018-Jun-14 22:00N 38°38' W 010°05'510.8
2018-Jun-14 21:30N 38°44' W 010°06'510.7
2018-Jun-14 21:00N 38°49' W 010°06'510.6
2018-Jun-14 20:31N 38°54' W 010°06'611.1
2018-Jun-14 20:01N 38°60' W 010°06'510.5
2018-Jun-14 19:31N 39°05' W 010°06'510.6
2018-Jun-14 19:00N 39°10' W 010°06'510.6
2018-Jun-14 18:30N 39°15' W 010°06'610.2
2018-Jun-14 17:57N 39°21' W 010°06'610.5
2018-Jun-14 17:25N 39°27' W 010°06'410.5
2018-Jun-14 17:00N 39°31' W 010°06'510.8
2018-Jun-14 16:31N 39°36' W 010°06'  

Dump ship's entire track history